sensor_id;sensor_type;location;lat;lon;timestamp;temperature;humidity
12309;DHT22;6217;48.150;17.142;2023-08-06T00:00:26;19.30;97.90
12309;DHT22;6217;48.150;17.142;2023-08-06T00:04:33;19.30;97.80
12309;DHT22;6217;48.150;17.142;2023-08-06T00:08:38;19.20;98.00
12309;DHT22;6217;48.150;17.142;2023-08-06T00:12:44;19.20;97.90
12309;DHT22;6217;48.150;17.142;2023-08-06T00:16:50;19.10;98.10
12309;DHT22;6217;48.150;17.142;2023-08-06T00:20:56;19.10;98.30
12309;DHT22;6217;48.150;17.142;2023-08-06T00:25:03;19.10;98.40
12309;DHT22;6217;48.150;17.142;2023-08-06T00:29:10;19.00;98.40
12309;DHT22;6217;48.150;17.142;2023-08-06T00:33:16;19.00;98.50
12309;DHT22;6217;48.150;17.142;2023-08-06T00:37:21;18.90;98.50
12309;DHT22;6217;48.150;17.142;2023-08-06T00:41:27;18.90;98.60
12309;DHT22;6217;48.150;17.142;2023-08-06T00:45:37;18.90;98.60
12309;DHT22;6217;48.150;17.142;2023-08-06T00:49:43;18.90;98.60
12309;DHT22;6217;48.150;17.142;2023-08-06T00:53:50;18.90;98.50
12309;DHT22;6217;48.150;17.142;2023-08-06T00:57:56;18.90;98.60
12309;DHT22;6217;48.150;17.142;2023-08-06T01:02:02;18.90;98.70
12309;DHT22;6217;48.150;17.142;2023-08-06T01:06:08;18.90;98.70
12309;DHT22;6217;48.150;17.142;2023-08-06T01:15:11;18.90;98.90
12309;DHT22;6217;48.150;17.142;2023-08-06T01:19:21;18.90;98.90
12309;DHT22;6217;48.150;17.142;2023-08-06T01:23:27;18.80;98.70
12309;DHT22;6217;48.150;17.142;2023-08-06T01:27:49;18.80;98.90
12309;DHT22;6217;48.150;17.142;2023-08-06T01:31:56;18.90;99.00
12309;DHT22;6217;48.150;17.142;2023-08-06T01:36:04;18.90;98.80
12309;DHT22;6217;48.150;17.142;2023-08-06T01:40:12;18.80;98.80
12309;DHT22;6217;48.150;17.142;2023-08-06T01:44:18;18.80;98.90
12309;DHT22;6217;48.150;17.142;2023-08-06T01:48:24;18.70;98.90
12309;DHT22;6217;48.150;17.142;2023-08-06T01:52:30;18.60;99.00
12309;DHT22;6217;48.150;17.142;2023-08-06T01:56:37;18.50;99.00
12309;DHT22;6217;48.150;17.142;2023-08-06T02:00:43;18.50;99.10
12309;DHT22;6217;48.150;17.142;2023-08-06T02:04:49;18.50;99.10
12309;DHT22;6217;48.150;17.142;2023-08-06T02:08:55;18.40;99.20
12309;DHT22;6217;48.150;17.142;2023-08-06T02:13:01;18.30;99.10
12309;DHT22;6217;48.150;17.142;2023-08-06T02:17:07;18.30;99.10
12309;DHT22;6217;48.150;17.142;2023-08-06T02:21:12;18.20;99.20
12309;DHT22;6217;48.150;17.142;2023-08-06T02:25:18;18.20;99.20
12309;DHT22;6217;48.150;17.142;2023-08-06T02:29:24;18.10;99.30
12309;DHT22;6217;48.150;17.142;2023-08-06T02:33:30;18.10;99.40
12309;DHT22;6217;48.150;17.142;2023-08-06T02:37:36;18.10;99.40
12309;DHT22;6217;48.150;17.142;2023-08-06T02:41:42;18.10;99.40
12309;DHT22;6217;48.150;17.142;2023-08-06T02:45:48;18.10;99.40
12309;DHT22;6217;48.150;17.142;2023-08-06T02:49:54;18.10;99.50
12309;DHT22;6217;48.150;17.142;2023-08-06T02:54:00;18.10;99.40
12309;DHT22;6217;48.150;17.142;2023-08-06T02:58:06;18.00;99.50
12309;DHT22;6217;48.150;17.142;2023-08-06T03:02:16;18.10;99.40
12309;DHT22;6217;48.150;17.142;2023-08-06T03:06:32;18.00;99.50
12309;DHT22;6217;48.150;17.142;2023-08-06T03:10:40;18.00;99.50
12309;DHT22;6217;48.150;17.142;2023-08-06T03:14:46;18.00;99.50
12309;DHT22;6217;48.150;17.142;2023-08-06T03:18:52;18.00;99.50
12309;DHT22;6217;48.150;17.142;2023-08-06T03:22:58;18.00;99.50
12309;DHT22;6217;48.150;17.142;2023-08-06T03:27:04;17.90;99.50
12309;DHT22;6217;48.150;17.142;2023-08-06T03:31:11;17.90;99.50
12309;DHT22;6217;48.150;17.142;2023-08-06T03:35:22;17.80;99.60
12309;DHT22;6217;48.150;17.142;2023-08-06T03:39:28;17.80;99.70
12309;DHT22;6217;48.150;17.142;2023-08-06T03:43:34;17.70;99.90
12309;DHT22;6217;48.150;17.142;2023-08-06T03:47:43;17.70;99.90
12309;DHT22;6217;48.150;17.142;2023-08-06T03:51:49;17.60;99.90
12309;DHT22;6217;48.150;17.142;2023-08-06T03:55:55;17.70;99.90
12309;DHT22;6217;48.150;17.142;2023-08-06T04:00:06;17.70;99.90
12309;DHT22;6217;48.150;17.142;2023-08-06T04:04:20;17.70;99.90
12309;DHT22;6217;48.150;17.142;2023-08-06T04:08:26;17.70;99.90
12309;DHT22;6217;48.150;17.142;2023-08-06T04:12:32;17.70;99.90
12309;DHT22;6217;48.150;17.142;2023-08-06T04:16:42;17.60;99.90
12309;DHT22;6217;48.150;17.142;2023-08-06T04:20:48;17.70;99.90
12309;DHT22;6217;48.150;17.142;2023-08-06T04:24:55;17.70;99.90
12309;DHT22;6217;48.150;17.142;2023-08-06T04:29:00;17.70;99.90
12309;DHT22;6217;48.150;17.142;2023-08-06T04:33:08;17.60;99.90
12309;DHT22;6217;48.150;17.142;2023-08-06T04:37:14;17.60;99.90
12309;DHT22;6217;48.150;17.142;2023-08-06T04:41:20;17.70;99.90
12309;DHT22;6217;48.150;17.142;2023-08-06T04:45:26;17.60;99.90
12309;DHT22;6217;48.150;17.142;2023-08-06T04:49:32;17.60;99.90
12309;DHT22;6217;48.150;17.142;2023-08-06T04:53:38;17.60;99.90
12309;DHT22;6217;48.150;17.142;2023-08-06T04:57:44;17.60;99.90
12309;DHT22;6217;48.150;17.142;2023-08-06T05:01:51;17.60;99.90
12309;DHT22;6217;48.150;17.142;2023-08-06T05:05:57;17.60;99.90
12309;DHT22;6217;48.150;17.142;2023-08-06T05:10:03;17.60;99.90
12309;DHT22;6217;48.150;17.142;2023-08-06T05:14:10;17.60;99.90
12309;DHT22;6217;48.150;17.142;2023-08-06T05:18:15;17.70;99.90
12309;DHT22;6217;48.150;17.142;2023-08-06T05:22:21;17.60;99.90
12309;DHT22;6217;48.150;17.142;2023-08-06T05:26:27;17.60;99.90
12309;DHT22;6217;48.150;17.142;2023-08-06T05:30:33;17.60;99.90
12309;DHT22;6217;48.150;17.142;2023-08-06T05:34:39;17.60;99.90
12309;DHT22;6217;48.150;17.142;2023-08-06T05:38:47;17.50;99.90
12309;DHT22;6217;48.150;17.142;2023-08-06T05:42:54;17.50;99.90
12309;DHT22;6217;48.150;17.142;2023-08-06T05:47:00;17.50;99.90
12309;DHT22;6217;48.150;17.142;2023-08-06T05:51:06;17.50;99.90
12309;DHT22;6217;48.150;17.142;2023-08-06T05:55:13;17.50;99.90
12309;DHT22;6217;48.150;17.142;2023-08-06T05:59:19;17.60;99.90
12309;DHT22;6217;48.150;17.142;2023-08-06T06:03:25;17.60;99.90
12309;DHT22;6217;48.150;17.142;2023-08-06T06:07:31;17.60;99.90
12309;DHT22;6217;48.150;17.142;2023-08-06T06:11:36;17.70;99.90
12309;DHT22;6217;48.150;17.142;2023-08-06T06:15:42;17.70;99.80
12309;DHT22;6217;48.150;17.142;2023-08-06T06:19:48;17.70;99.80
12309;DHT22;6217;48.150;17.142;2023-08-06T06:23:55;17.80;99.70
12309;DHT22;6217;48.150;17.142;2023-08-06T06:28:02;17.80;99.60
12309;DHT22;6217;48.150;17.142;2023-08-06T06:32:08;17.80;99.50
12309;DHT22;6217;48.150;17.142;2023-08-06T06:36:14;17.90;99.40
12309;DHT22;6217;48.150;17.142;2023-08-06T06:40:20;17.80;99.30
12309;DHT22;6217;48.150;17.142;2023-08-06T06:44:26;17.90;99.30
12309;DHT22;6217;48.150;17.142;2023-08-06T06:48:32;18.00;99.20
12309;DHT22;6217;48.150;17.142;2023-08-06T06:52:38;18.00;99.00
12309;DHT22;6217;48.150;17.142;2023-08-06T06:56:44;18.00;98.90
12309;DHT22;6217;48.150;17.142;2023-08-06T07:00:50;18.00;98.80
12309;DHT22;6217;48.150;17.142;2023-08-06T07:04:56;18.10;99.20
12309;DHT22;6217;48.150;17.142;2023-08-06T07:09:02;18.10;98.80
12309;DHT22;6217;48.150;17.142;2023-08-06T07:13:09;18.10;98.70
12309;DHT22;6217;48.150;17.142;2023-08-06T07:17:15;18.10;98.70
12309;DHT22;6217;48.150;17.142;2023-08-06T07:21:21;18.20;98.50
12309;DHT22;6217;48.150;17.142;2023-08-06T07:25:27;18.20;98.40
12309;DHT22;6217;48.150;17.142;2023-08-06T07:29:33;18.10;98.60
12309;DHT22;6217;48.150;17.142;2023-08-06T07:33:39;18.20;98.30
12309;DHT22;6217;48.150;17.142;2023-08-06T07:37:45;18.20;98.20
12309;DHT22;6217;48.150;17.142;2023-08-06T07:41:51;18.30;98.20
12309;DHT22;6217;48.150;17.142;2023-08-06T07:45:58;18.40;98.00
12309;DHT22;6217;48.150;17.142;2023-08-06T07:50:06;18.40;97.90
12309;DHT22;6217;48.150;17.142;2023-08-06T07:54:12;18.50;97.70
12309;DHT22;6217;48.150;17.142;2023-08-06T07:58:18;18.60;97.60
12309;DHT22;6217;48.150;17.142;2023-08-06T08:02:28;18.60;97.60
12309;DHT22;6217;48.150;17.142;2023-08-06T08:06:36;18.60;97.40
12309;DHT22;6217;48.150;17.142;2023-08-06T08:10:42;18.60;97.40
12309;DHT22;6217;48.150;17.142;2023-08-06T08:14:48;18.60;97.30
12309;DHT22;6217;48.150;17.142;2023-08-06T08:18:54;18.70;97.30
12309;DHT22;6217;48.150;17.142;2023-08-06T08:23:00;18.70;97.20
12309;DHT22;6217;48.150;17.142;2023-08-06T08:27:05;18.70;97.20
12309;DHT22;6217;48.150;17.142;2023-08-06T08:31:12;18.80;97.10
12309;DHT22;6217;48.150;17.142;2023-08-06T08:35:18;18.80;97.20
12309;DHT22;6217;48.150;17.142;2023-08-06T08:39:23;18.90;97.10
12309;DHT22;6217;48.150;17.142;2023-08-06T08:43:30;19.00;97.10
12309;DHT22;6217;48.150;17.142;2023-08-06T08:47:37;19.00;96.90
12309;DHT22;6217;48.150;17.142;2023-08-06T08:51:43;19.10;97.00
12309;DHT22;6217;48.150;17.142;2023-08-06T08:55:50;19.10;96.80
12309;DHT22;6217;48.150;17.142;2023-08-06T08:59:56;19.20;96.80
12309;DHT22;6217;48.150;17.142;2023-08-06T09:04:04;19.20;96.70
12309;DHT22;6217;48.150;17.142;2023-08-06T09:08:11;19.10;96.50
12309;DHT22;6217;48.150;17.142;2023-08-06T09:12:18;19.10;96.50
12309;DHT22;6217;48.150;17.142;2023-08-06T09:16:24;19.10;96.60
12309;DHT22;6217;48.150;17.142;2023-08-06T09:20:34;19.20;96.60
12309;DHT22;6217;48.150;17.142;2023-08-06T09:24:41;19.20;96.30
12309;DHT22;6217;48.150;17.142;2023-08-06T09:28:47;19.30;96.30
12309;DHT22;6217;48.150;17.142;2023-08-06T09:32:53;19.30;96.30
12309;DHT22;6217;48.150;17.142;2023-08-06T09:36:59;19.40;96.20
12309;DHT22;6217;48.150;17.142;2023-08-06T09:41:05;19.40;96.10
12309;DHT22;6217;48.150;17.142;2023-08-06T09:45:11;19.50;96.00
12309;DHT22;6217;48.150;17.142;2023-08-06T09:49:27;19.50;95.80
12309;DHT22;6217;48.150;17.142;2023-08-06T09:53:48;19.50;95.50
12309;DHT22;6217;48.150;17.142;2023-08-06T09:57:55;19.60;95.60
12309;DHT22;6217;48.150;17.142;2023-08-06T10:02:02;19.70;95.50
12309;DHT22;6217;48.150;17.142;2023-08-06T10:06:13;19.80;95.20
12309;DHT22;6217;48.150;17.142;2023-08-06T10:10:19;19.80;95.10
12309;DHT22;6217;48.150;17.142;2023-08-06T10:14:32;19.90;95.00
12309;DHT22;6217;48.150;17.142;2023-08-06T10:18:40;19.90;94.80
12309;DHT22;6217;48.150;17.142;2023-08-06T10:23:02;20.00;94.70
12309;DHT22;6217;48.150;17.142;2023-08-06T10:27:09;20.00;94.20
12309;DHT22;6217;48.150;17.142;2023-08-06T10:31:15;20.00;94.30
12309;DHT22;6217;48.150;17.142;2023-08-06T10:35:38;20.00;94.00
12309;DHT22;6217;48.150;17.142;2023-08-06T10:39:49;20.00;93.80
12309;DHT22;6217;48.150;17.142;2023-08-06T10:44:09;20.00;93.70
12309;DHT22;6217;48.150;17.142;2023-08-06T10:48:29;19.90;93.50
12309;DHT22;6217;48.150;17.142;2023-08-06T10:52:37;19.90;93.40
12309;DHT22;6217;48.150;17.142;2023-08-06T10:56:43;19.90;93.50
12309;DHT22;6217;48.150;17.142;2023-08-06T11:00:50;20.00;93.30
12309;DHT22;6217;48.150;17.142;2023-08-06T11:04:56;19.90;93.20
12309;DHT22;6217;48.150;17.142;2023-08-06T11:09:02;19.90;93.10
12309;DHT22;6217;48.150;17.142;2023-08-06T11:13:08;19.90;93.10
12309;DHT22;6217;48.150;17.142;2023-08-06T11:17:14;19.90;93.10
12309;DHT22;6217;48.150;17.142;2023-08-06T11:21:20;19.90;93.20
12309;DHT22;6217;48.150;17.142;2023-08-06T11:25:26;19.90;93.30
12309;DHT22;6217;48.150;17.142;2023-08-06T11:29:38;19.80;93.30
12309;DHT22;6217;48.150;17.142;2023-08-06T11:33:44;19.80;93.40
12309;DHT22;6217;48.150;17.142;2023-08-06T11:37:50;19.70;93.50
12309;DHT22;6217;48.150;17.142;2023-08-06T11:41:55;19.70;93.60
12309;DHT22;6217;48.150;17.142;2023-08-06T11:46:02;19.70;93.80
12309;DHT22;6217;48.150;17.142;2023-08-06T11:50:08;19.70;93.80
12309;DHT22;6217;48.150;17.142;2023-08-06T11:54:14;19.70;93.90
12309;DHT22;6217;48.150;17.142;2023-08-06T11:58:20;19.70;93.80
12309;DHT22;6217;48.150;17.142;2023-08-06T12:02:26;19.70;93.70
12309;DHT22;6217;48.150;17.142;2023-08-06T12:06:42;19.70;93.60
12309;DHT22;6217;48.150;17.142;2023-08-06T12:10:48;19.70;93.50
12309;DHT22;6217;48.150;17.142;2023-08-06T12:14:56;19.80;93.40
12309;DHT22;6217;48.150;17.142;2023-08-06T12:19:02;19.80;93.20
12309;DHT22;6217;48.150;17.142;2023-08-06T12:23:08;19.80;93.10
12309;DHT22;6217;48.150;17.142;2023-08-06T12:27:15;19.80;93.10
12309;DHT22;6217;48.150;17.142;2023-08-06T12:31:24;19.70;93.10
12309;DHT22;6217;48.150;17.142;2023-08-06T12:35:30;19.70;93.10
12309;DHT22;6217;48.150;17.142;2023-08-06T12:39:37;19.60;93.20
12309;DHT22;6217;48.150;17.142;2023-08-06T12:43:43;19.60;93.20
12309;DHT22;6217;48.150;17.142;2023-08-06T12:47:49;19.60;93.10
12309;DHT22;6217;48.150;17.142;2023-08-06T12:51:55;19.60;93.10
12309;DHT22;6217;48.150;17.142;2023-08-06T12:56:02;19.60;93.20
12309;DHT22;6217;48.150;17.142;2023-08-06T13:00:08;19.50;93.30
12309;DHT22;6217;48.150;17.142;2023-08-06T13:04:14;19.50;93.30
12309;DHT22;6217;48.150;17.142;2023-08-06T13:08:21;19.50;93.40
12309;DHT22;6217;48.150;17.142;2023-08-06T13:12:27;19.40;93.50
12309;DHT22;6217;48.150;17.142;2023-08-06T13:16:33;19.40;93.60
12309;DHT22;6217;48.150;17.142;2023-08-06T13:20:40;19.40;93.60
12309;DHT22;6217;48.150;17.142;2023-08-06T13:24:46;19.40;93.70
12309;DHT22;6217;48.150;17.142;2023-08-06T13:28:52;19.40;93.80
12309;DHT22;6217;48.150;17.142;2023-08-06T13:32:58;19.40;93.90
12309;DHT22;6217;48.150;17.142;2023-08-06T13:37:04;19.40;93.80
12309;DHT22;6217;48.150;17.142;2023-08-06T13:41:10;19.40;93.80
12309;DHT22;6217;48.150;17.142;2023-08-06T13:45:16;19.40;93.90
12309;DHT22;6217;48.150;17.142;2023-08-06T13:49:21;19.40;94.00
12309;DHT22;6217;48.150;17.142;2023-08-06T13:53:27;19.40;93.90
12309;DHT22;6217;48.150;17.142;2023-08-06T13:57:35;19.30;94.00
12309;DHT22;6217;48.150;17.142;2023-08-06T14:01:41;19.30;94.00
12309;DHT22;6217;48.150;17.142;2023-08-06T14:05:47;19.30;93.90
12309;DHT22;6217;48.150;17.142;2023-08-06T14:09:53;19.20;93.90
12309;DHT22;6217;48.150;17.142;2023-08-06T14:13:59;19.20;94.00
12309;DHT22;6217;48.150;17.142;2023-08-06T14:18:06;19.20;94.00
12309;DHT22;6217;48.150;17.142;2023-08-06T14:22:14;19.20;94.00
12309;DHT22;6217;48.150;17.142;2023-08-06T14:26:19;19.30;94.00
12309;DHT22;6217;48.150;17.142;2023-08-06T14:30:25;19.30;93.90
12309;DHT22;6217;48.150;17.142;2023-08-06T14:34:31;19.40;93.90
12309;DHT22;6217;48.150;17.142;2023-08-06T14:38:37;19.50;93.80
12309;DHT22;6217;48.150;17.142;2023-08-06T14:42:43;19.60;93.70
12309;DHT22;6217;48.150;17.142;2023-08-06T14:46:49;19.60;93.50
12309;DHT22;6217;48.150;17.142;2023-08-06T14:50:55;19.70;93.50
12309;DHT22;6217;48.150;17.142;2023-08-06T14:55:01;19.80;93.50
12309;DHT22;6217;48.150;17.142;2023-08-06T14:59:09;19.90;93.60
12309;DHT22;6217;48.150;17.142;2023-08-06T15:03:15;20.00;93.40
12309;DHT22;6217;48.150;17.142;2023-08-06T15:07:21;20.10;93.30
12309;DHT22;6217;48.150;17.142;2023-08-06T15:11:27;20.20;93.30
12309;DHT22;6217;48.150;17.142;2023-08-06T15:15:33;20.20;93.10
12309;DHT22;6217;48.150;17.142;2023-08-06T15:19:38;20.20;93.10
12309;DHT22;6217;48.150;17.142;2023-08-06T15:23:44;20.30;93.00
12309;DHT22;6217;48.150;17.142;2023-08-06T15:27:50;20.40;93.00
12309;DHT22;6217;48.150;17.142;2023-08-06T15:31:56;20.50;92.80
12309;DHT22;6217;48.150;17.142;2023-08-06T15:36:02;20.50;93.00
12309;DHT22;6217;48.150;17.142;2023-08-06T15:40:09;20.60;93.00
12309;DHT22;6217;48.150;17.142;2023-08-06T15:44:15;20.70;92.80
12309;DHT22;6217;48.150;17.142;2023-08-06T15:48:21;20.70;93.10
12309;DHT22;6217;48.150;17.142;2023-08-06T15:52:27;20.80;92.80
12309;DHT22;6217;48.150;17.142;2023-08-06T15:56:33;21.00;92.70
12309;DHT22;6217;48.150;17.142;2023-08-06T16:00:39;21.00;92.50
12309;DHT22;6217;48.150;17.142;2023-08-06T16:04:45;21.00;92.60
12309;DHT22;6217;48.150;17.142;2023-08-06T16:08:51;21.10;92.50
12309;DHT22;6217;48.150;17.142;2023-08-06T16:12:57;21.00;92.20
12309;DHT22;6217;48.150;17.142;2023-08-06T16:17:03;20.90;92.30
12309;DHT22;6217;48.150;17.142;2023-08-06T16:21:09;20.70;92.40
12309;DHT22;6217;48.150;17.142;2023-08-06T16:25:15;20.60;92.60
12309;DHT22;6217;48.150;17.142;2023-08-06T16:29:21;20.30;92.70
12309;DHT22;6217;48.150;17.142;2023-08-06T16:33:27;20.10;92.90
12309;DHT22;6217;48.150;17.142;2023-08-06T16:37:32;19.90;93.10
12309;DHT22;6217;48.150;17.142;2023-08-06T16:41:38;19.70;93.30
12309;DHT22;6217;48.150;17.142;2023-08-06T16:45:44;19.60;93.50
12309;DHT22;6217;48.150;17.142;2023-08-06T16:49:50;19.50;93.60
12309;DHT22;6217;48.150;17.142;2023-08-06T16:53:56;19.50;93.70
12309;DHT22;6217;48.150;17.142;2023-08-06T16:58:02;19.50;93.70
12309;DHT22;6217;48.150;17.142;2023-08-06T17:02:08;19.40;93.70
12309;DHT22;6217;48.150;17.142;2023-08-06T17:06:14;19.40;93.80
12309;DHT22;6217;48.150;17.142;2023-08-06T17:10:22;19.30;93.90
12309;DHT22;6217;48.150;17.142;2023-08-06T17:14:28;19.20;94.20
12309;DHT22;6217;48.150;17.142;2023-08-06T17:18:34;19.10;94.50
12309;DHT22;6217;48.150;17.142;2023-08-06T17:22:40;19.00;94.70
12309;DHT22;6217;48.150;17.142;2023-08-06T17:26:46;18.90;94.80
12309;DHT22;6217;48.150;17.142;2023-08-06T17:30:51;18.80;94.90
12309;DHT22;6217;48.150;17.142;2023-08-06T17:34:57;18.70;94.90
12309;DHT22;6217;48.150;17.142;2023-08-06T17:39:03;18.60;94.90
12309;DHT22;6217;48.150;17.142;2023-08-06T17:43:09;18.60;94.90
12309;DHT22;6217;48.150;17.142;2023-08-06T17:47:17;18.60;94.80
12309;DHT22;6217;48.150;17.142;2023-08-06T17:51:23;18.50;94.80
12309;DHT22;6217;48.150;17.142;2023-08-06T17:55:30;18.60;94.80
12309;DHT22;6217;48.150;17.142;2023-08-06T17:59:39;18.50;94.80
12309;DHT22;6217;48.150;17.142;2023-08-06T18:03:45;18.50;94.80
12309;DHT22;6217;48.150;17.142;2023-08-06T18:07:52;18.50;95.00
12309;DHT22;6217;48.150;17.142;2023-08-06T18:11:58;18.60;95.00
12309;DHT22;6217;48.150;17.142;2023-08-06T18:16:04;18.50;94.90
12309;DHT22;6217;48.150;17.142;2023-08-06T18:20:10;18.50;95.00
12309;DHT22;6217;48.150;17.142;2023-08-06T18:24:16;18.50;95.10
12309;DHT22;6217;48.150;17.142;2023-08-06T18:28:22;18.50;95.10
12309;DHT22;6217;48.150;17.142;2023-08-06T18:32:28;18.50;95.20
12309;DHT22;6217;48.150;17.142;2023-08-06T18:36:34;18.50;95.20
12309;DHT22;6217;48.150;17.142;2023-08-06T18:40:40;18.50;95.30
12309;DHT22;6217;48.150;17.142;2023-08-06T18:44:46;18.50;95.30
12309;DHT22;6217;48.150;17.142;2023-08-06T18:48:52;18.50;95.30
12309;DHT22;6217;48.150;17.142;2023-08-06T18:52:58;18.60;95.30
12309;DHT22;6217;48.150;17.142;2023-08-06T18:57:04;18.60;95.30
12309;DHT22;6217;48.150;17.142;2023-08-06T19:01:10;18.50;95.30
12309;DHT22;6217;48.150;17.142;2023-08-06T19:05:16;18.30;95.40
12309;DHT22;6217;48.150;17.142;2023-08-06T19:09:22;18.30;95.40
12309;DHT22;6217;48.150;17.142;2023-08-06T19:13:28;18.20;95.30
12309;DHT22;6217;48.150;17.142;2023-08-06T19:17:35;18.20;95.30
12309;DHT22;6217;48.150;17.142;2023-08-06T19:21:41;18.30;95.20
12309;DHT22;6217;48.150;17.142;2023-08-06T19:25:47;18.30;95.10
12309;DHT22;6217;48.150;17.142;2023-08-06T19:29:54;18.30;94.90
12309;DHT22;6217;48.150;17.142;2023-08-06T19:34:00;18.20;94.70
12309;DHT22;6217;48.150;17.142;2023-08-06T19:38:06;18.30;94.50
12309;DHT22;6217;48.150;17.142;2023-08-06T19:42:12;18.20;94.40
12309;DHT22;6217;48.150;17.142;2023-08-06T19:46:18;18.20;94.20
12309;DHT22;6217;48.150;17.142;2023-08-06T19:50:24;18.20;94.10
12309;DHT22;6217;48.150;17.142;2023-08-06T19:54:30;18.30;93.90
12309;DHT22;6217;48.150;17.142;2023-08-06T19:58:36;18.30;93.70
12309;DHT22;6217;48.150;17.142;2023-08-06T20:02:41;18.20;93.50
12309;DHT22;6217;48.150;17.142;2023-08-06T20:06:47;18.10;93.10
12309;DHT22;6217;48.150;17.142;2023-08-06T20:10:53;18.00;92.80
12309;DHT22;6217;48.150;17.142;2023-08-06T20:15:02;18.10;92.80
12309;DHT22;6217;48.150;17.142;2023-08-06T20:19:08;18.00;92.50
12309;DHT22;6217;48.150;17.142;2023-08-06T20:23:14;17.90;92.20
12309;DHT22;6217;48.150;17.142;2023-08-06T20:27:20;17.90;92.10
12309;DHT22;6217;48.150;17.142;2023-08-06T20:31:26;17.80;92.00
12309;DHT22;6217;48.150;17.142;2023-08-06T20:35:32;17.80;91.80
12309;DHT22;6217;48.150;17.142;2023-08-06T20:39:38;17.70;91.60
12309;DHT22;6217;48.150;17.142;2023-08-06T20:43:44;17.70;91.60
12309;DHT22;6217;48.150;17.142;2023-08-06T20:47:50;17.70;91.50
12309;DHT22;6217;48.150;17.142;2023-08-06T20:51:56;17.70;91.50
12309;DHT22;6217;48.150;17.142;2023-08-06T20:56:03;17.70;91.40
12309;DHT22;6217;48.150;17.142;2023-08-06T21:00:12;17.60;91.30
12309;DHT22;6217;48.150;17.142;2023-08-06T21:04:18;17.60;91.30
12309;DHT22;6217;48.150;17.142;2023-08-06T21:08:24;17.60;91.20
12309;DHT22;6217;48.150;17.142;2023-08-06T21:12:31;17.50;91.20
12309;DHT22;6217;48.150;17.142;2023-08-06T21:16:37;17.60;91.00
12309;DHT22;6217;48.150;17.142;2023-08-06T21:20:44;17.60;90.90
12309;DHT22;6217;48.150;17.142;2023-08-06T21:24:51;17.50;90.80
12309;DHT22;6217;48.150;17.142;2023-08-06T21:28:57;17.50;90.80
12309;DHT22;6217;48.150;17.142;2023-08-06T21:33:03;17.60;90.80
12309;DHT22;6217;48.150;17.142;2023-08-06T21:37:08;17.60;90.70
12309;DHT22;6217;48.150;17.142;2023-08-06T21:41:15;17.50;90.60
12309;DHT22;6217;48.150;17.142;2023-08-06T21:45:21;17.60;90.50
12309;DHT22;6217;48.150;17.142;2023-08-06T21:49:27;17.50;90.30
12309;DHT22;6217;48.150;17.142;2023-08-06T21:53:36;17.50;90.40
12309;DHT22;6217;48.150;17.142;2023-08-06T21:57:45;17.50;90.40
12309;DHT22;6217;48.150;17.142;2023-08-06T22:01:54;17.50;90.40
12309;DHT22;6217;48.150;17.142;2023-08-06T22:06:00;17.60;90.40
12309;DHT22;6217;48.150;17.142;2023-08-06T22:10:07;17.50;90.40
12309;DHT22;6217;48.150;17.142;2023-08-06T22:14:13;17.50;90.50
12309;DHT22;6217;48.150;17.142;2023-08-06T22:18:19;17.50;90.50
12309;DHT22;6217;48.150;17.142;2023-08-06T22:22:25;17.50;90.50
12309;DHT22;6217;48.150;17.142;2023-08-06T22:26:31;17.50;90.50
12309;DHT22;6217;48.150;17.142;2023-08-06T22:30:37;17.50;90.50
12309;DHT22;6217;48.150;17.142;2023-08-06T22:34:43;17.50;90.50
12309;DHT22;6217;48.150;17.142;2023-08-06T22:38:49;17.50;90.50
12309;DHT22;6217;48.150;17.142;2023-08-06T22:42:54;17.40;90.40
12309;DHT22;6217;48.150;17.142;2023-08-06T22:47:00;17.40;90.40
12309;DHT22;6217;48.150;17.142;2023-08-06T22:51:06;17.40;90.40
12309;DHT22;6217;48.150;17.142;2023-08-06T22:55:12;17.30;90.40
12309;DHT22;6217;48.150;17.142;2023-08-06T22:59:18;17.40;90.40
12309;DHT22;6217;48.150;17.142;2023-08-06T23:03:24;17.30;90.30
12309;DHT22;6217;48.150;17.142;2023-08-06T23:07:30;17.30;90.30
12309;DHT22;6217;48.150;17.142;2023-08-06T23:11:36;17.30;90.30
12309;DHT22;6217;48.150;17.142;2023-08-06T23:15:42;17.30;90.20
12309;DHT22;6217;48.150;17.142;2023-08-06T23:19:48;17.30;90.20
12309;DHT22;6217;48.150;17.142;2023-08-06T23:23:54;17.20;90.10
12309;DHT22;6217;48.150;17.142;2023-08-06T23:28:00;17.30;90.10
12309;DHT22;6217;48.150;17.142;2023-08-06T23:32:06;17.30;90.10
12309;DHT22;6217;48.150;17.142;2023-08-06T23:36:12;17.20;90.10
12309;DHT22;6217;48.150;17.142;2023-08-06T23:40:18;17.20;90.10
12309;DHT22;6217;48.150;17.142;2023-08-06T23:44:26;17.20;90.10
12309;DHT22;6217;48.150;17.142;2023-08-06T23:48:31;17.10;90.10
12309;DHT22;6217;48.150;17.142;2023-08-06T23:52:37;17.10;90.00
12309;DHT22;6217;48.150;17.142;2023-08-06T23:56:43;17.10;90.00
